sensor_id;sensor_type;location;lat;lon;timestamp;P1;durP1;ratioP1;P2;durP2;ratioP2
19593;SDS011;9944;48.240;16.478;2022-11-28T00:03:42;21.60;;;11.07;;
19593;SDS011;9944;48.240;16.478;2022-11-28T00:07:45;18.80;;;10.65;;
19593;SDS011;9944;48.240;16.478;2022-11-28T00:11:50;21.48;;;10.77;;
19593;SDS011;9944;48.240;16.478;2022-11-28T00:15:55;18.88;;;10.88;;
19593;SDS011;9944;48.240;16.478;2022-11-28T00:19:59;20.63;;;10.38;;
19593;SDS011;9944;48.240;16.478;2022-11-28T00:24:02;17.65;;;9.93;;
19593;SDS011;9944;48.240;16.478;2022-11-28T00:28:07;19.60;;;11.25;;
19593;SDS011;9944;48.240;16.478;2022-11-28T00:32:10;21.42;;;11.13;;
19593;SDS011;9944;48.240;16.478;2022-11-28T00:36:13;19.30;;;10.02;;
19593;SDS011;9944;48.240;16.478;2022-11-28T00:40:17;19.80;;;10.45;;
19593;SDS011;9944;48.240;16.478;2022-11-28T00:44:21;17.00;;;9.77;;
19593;SDS011;9944;48.240;16.478;2022-11-28T00:48:25;19.15;;;10.15;;
19593;SDS011;9944;48.240;16.478;2022-11-28T00:52:30;18.88;;;10.07;;
19593;SDS011;9944;48.240;16.478;2022-11-28T00:56:35;18.45;;;9.52;;
19593;SDS011;9944;48.240;16.478;2022-11-28T01:00:40;18.23;;;9.07;;
19593;SDS011;9944;48.240;16.478;2022-11-28T01:04:43;20.27;;;10.18;;
19593;SDS011;9944;48.240;16.478;2022-11-28T01:08:46;19.80;;;10.02;;
19593;SDS011;9944;48.240;16.478;2022-11-28T01:12:49;18.00;;;9.35;;
19593;SDS011;9944;48.240;16.478;2022-11-28T01:16:54;16.25;;;8.25;;
19593;SDS011;9944;48.240;16.478;2022-11-28T01:20:57;18.02;;;8.20;;
19593;SDS011;9944;48.240;16.478;2022-11-28T01:24:59;18.42;;;8.88;;
19593;SDS011;9944;48.240;16.478;2022-11-28T01:29:02;15.00;;;8.68;;
19593;SDS011;9944;48.240;16.478;2022-11-28T01:33:07;17.27;;;8.60;;
19593;SDS011;9944;48.240;16.478;2022-11-28T01:37:10;17.77;;;8.27;;
19593;SDS011;9944;48.240;16.478;2022-11-28T01:41:13;17.30;;;8.80;;
19593;SDS011;9944;48.240;16.478;2022-11-28T01:45:19;19.75;;;9.57;;
19593;SDS011;9944;48.240;16.478;2022-11-28T01:49:26;19.83;;;8.98;;
19593;SDS011;9944;48.240;16.478;2022-11-28T01:53:33;18.25;;;7.93;;
19593;SDS011;9944;48.240;16.478;2022-11-28T01:57:39;15.18;;;7.63;;
19593;SDS011;9944;48.240;16.478;2022-11-28T02:01:42;14.38;;;7.63;;
19593;SDS011;9944;48.240;16.478;2022-11-28T02:05:48;14.90;;;7.53;;
19593;SDS011;9944;48.240;16.478;2022-11-28T02:09:52;15.57;;;8.07;;
19593;SDS011;9944;48.240;16.478;2022-11-28T02:13:58;14.88;;;7.68;;
19593;SDS011;9944;48.240;16.478;2022-11-28T02:18:15;16.45;;;7.93;;
19593;SDS011;9944;48.240;16.478;2022-11-28T02:22:33;14.57;;;7.80;;
19593;SDS011;9944;48.240;16.478;2022-11-28T02:26:50;18.27;;;8.82;;
19593;SDS011;9944;48.240;16.478;2022-11-28T02:31:24;15.23;;;7.40;;
19593;SDS011;9944;48.240;16.478;2022-11-28T02:35:41;16.30;;;7.65;;
19593;SDS011;9944;48.240;16.478;2022-11-28T02:39:55;15.25;;;8.52;;
19593;SDS011;9944;48.240;16.478;2022-11-28T02:44:10;16.73;;;8.05;;
19593;SDS011;9944;48.240;16.478;2022-11-28T02:48:18;16.50;;;7.93;;
19593;SDS011;9944;48.240;16.478;2022-11-28T02:52:31;15.38;;;7.63;;
19593;SDS011;9944;48.240;16.478;2022-11-28T02:56:37;15.88;;;7.95;;
19593;SDS011;9944;48.240;16.478;2022-11-28T03:00:41;18.23;;;8.35;;
19593;SDS011;9944;48.240;16.478;2022-11-28T03:04:49;16.33;;;7.68;;
19593;SDS011;9944;48.240;16.478;2022-11-28T03:09:08;16.75;;;7.82;;
19593;SDS011;9944;48.240;16.478;2022-11-28T03:13:29;15.02;;;7.65;;
19593;SDS011;9944;48.240;16.478;2022-11-28T03:17:37;15.73;;;7.30;;
19593;SDS011;9944;48.240;16.478;2022-11-28T03:21:49;15.63;;;7.85;;
19593;SDS011;9944;48.240;16.478;2022-11-28T03:26:04;17.02;;;7.63;;
19593;SDS011;9944;48.240;16.478;2022-11-28T03:30:10;12.80;;;7.10;;
19593;SDS011;9944;48.240;16.478;2022-11-28T03:34:21;17.17;;;7.78;;
19593;SDS011;9944;48.240;16.478;2022-11-28T03:38:27;16.25;;;8.25;;
19593;SDS011;9944;48.240;16.478;2022-11-28T03:42:36;15.50;;;7.45;;
19593;SDS011;9944;48.240;16.478;2022-11-28T03:46:43;14.98;;;7.22;;
19593;SDS011;9944;48.240;16.478;2022-11-28T03:50:49;17.63;;;8.18;;
19593;SDS011;9944;48.240;16.478;2022-11-28T03:55:00;16.13;;;7.28;;
19593;SDS011;9944;48.240;16.478;2022-11-28T03:59:09;13.35;;;7.65;;
19593;SDS011;9944;48.240;16.478;2022-11-28T04:03:20;14.15;;;7.45;;
19593;SDS011;9944;48.240;16.478;2022-11-28T04:07:31;17.95;;;7.72;;
19593;SDS011;9944;48.240;16.478;2022-11-28T04:11:40;15.23;;;7.22;;
19593;SDS011;9944;48.240;16.478;2022-11-28T04:15:53;16.70;;;8.05;;
19593;SDS011;9944;48.240;16.478;2022-11-28T04:20:02;15.00;;;7.07;;
19593;SDS011;9944;48.240;16.478;2022-11-28T04:24:10;14.82;;;6.55;;
19593;SDS011;9944;48.240;16.478;2022-11-28T04:28:17;14.95;;;7.70;;
19593;SDS011;9944;48.240;16.478;2022-11-28T04:32:25;15.30;;;6.80;;
19593;SDS011;9944;48.240;16.478;2022-11-28T04:36:30;13.27;;;6.45;;
19593;SDS011;9944;48.240;16.478;2022-11-28T04:40:37;12.25;;;6.38;;
19593;SDS011;9944;48.240;16.478;2022-11-28T04:44:47;13.70;;;6.80;;
19593;SDS011;9944;48.240;16.478;2022-11-28T04:48:56;13.35;;;6.45;;
19593;SDS011;9944;48.240;16.478;2022-11-28T04:53:00;14.75;;;6.93;;
19593;SDS011;9944;48.240;16.478;2022-11-28T04:57:09;12.40;;;6.40;;
19593;SDS011;9944;48.240;16.478;2022-11-28T05:01:16;14.45;;;6.60;;
19593;SDS011;9944;48.240;16.478;2022-11-28T05:05:25;15.02;;;6.95;;
19593;SDS011;9944;48.240;16.478;2022-11-28T05:09:28;13.98;;;6.63;;
19593;SDS011;9944;48.240;16.478;2022-11-28T05:13:32;13.68;;;6.82;;
19593;SDS011;9944;48.240;16.478;2022-11-28T05:17:35;14.57;;;6.22;;
19593;SDS011;9944;48.240;16.478;2022-11-28T05:21:44;13.55;;;6.75;;
19593;SDS011;9944;48.240;16.478;2022-11-28T05:25:47;13.90;;;7.20;;
19593;SDS011;9944;48.240;16.478;2022-11-28T05:29:50;13.70;;;7.63;;
19593;SDS011;9944;48.240;16.478;2022-11-28T05:33:54;14.45;;;7.60;;
19593;SDS011;9944;48.240;16.478;2022-11-28T05:37:59;14.43;;;6.32;;
19593;SDS011;9944;48.240;16.478;2022-11-28T05:42:02;12.68;;;6.65;;
19593;SDS011;9944;48.240;16.478;2022-11-28T05:46:06;13.80;;;6.65;;
19593;SDS011;9944;48.240;16.478;2022-11-28T05:50:09;12.65;;;6.70;;
19593;SDS011;9944;48.240;16.478;2022-11-28T05:54:13;13.68;;;6.50;;
19593;SDS011;9944;48.240;16.478;2022-11-28T05:58:16;14.40;;;7.32;;
19593;SDS011;9944;48.240;16.478;2022-11-28T06:02:19;13.25;;;6.28;;
19593;SDS011;9944;48.240;16.478;2022-11-28T06:06:23;12.80;;;6.75;;
19593;SDS011;9944;48.240;16.478;2022-11-28T06:10:29;15.88;;;6.90;;
19593;SDS011;9944;48.240;16.478;2022-11-28T06:14:32;12.45;;;6.65;;
19593;SDS011;9944;48.240;16.478;2022-11-28T06:18:35;14.57;;;6.97;;
19593;SDS011;9944;48.240;16.478;2022-11-28T06:22:38;12.90;;;6.65;;
19593;SDS011;9944;48.240;16.478;2022-11-28T06:26:43;18.17;;;7.50;;
19593;SDS011;9944;48.240;16.478;2022-11-28T06:30:46;16.40;;;7.47;;
19593;SDS011;9944;48.240;16.478;2022-11-28T06:34:49;17.95;;;8.00;;
19593;SDS011;9944;48.240;16.478;2022-11-28T06:38:52;15.52;;;7.22;;
19593;SDS011;9944;48.240;16.478;2022-11-28T06:42:56;17.83;;;8.02;;
19593;SDS011;9944;48.240;16.478;2022-11-28T06:46:59;12.60;;;6.53;;
19593;SDS011;9944;48.240;16.478;2022-11-28T06:51:03;14.27;;;6.78;;
19593;SDS011;9944;48.240;16.478;2022-11-28T06:55:07;19.00;;;7.88;;
19593;SDS011;9944;48.240;16.478;2022-11-28T06:59:12;14.35;;;7.45;;
19593;SDS011;9944;48.240;16.478;2022-11-28T07:03:15;15.20;;;7.65;;
19593;SDS011;9944;48.240;16.478;2022-11-28T07:07:18;15.63;;;7.00;;
19593;SDS011;9944;48.240;16.478;2022-11-28T07:11:22;16.60;;;7.45;;
19593;SDS011;9944;48.240;16.478;2022-11-28T07:15:28;15.50;;;7.55;;
19593;SDS011;9944;48.240;16.478;2022-11-28T07:19:31;16.48;;;7.57;;
19593;SDS011;9944;48.240;16.478;2022-11-28T07:23:34;13.38;;;7.45;;
19593;SDS011;9944;48.240;16.478;2022-11-28T07:27:37;14.80;;;7.30;;
19593;SDS011;9944;48.240;16.478;2022-11-28T07:31:42;13.95;;;7.32;;
19593;SDS011;9944;48.240;16.478;2022-11-28T07:35:45;15.40;;;7.43;;
19593;SDS011;9944;48.240;16.478;2022-11-28T07:39:48;16.50;;;7.13;;
19593;SDS011;9944;48.240;16.478;2022-11-28T07:43:52;17.00;;;8.15;;
19593;SDS011;9944;48.240;16.478;2022-11-28T07:47:57;15.18;;;7.78;;
19593;SDS011;9944;48.240;16.478;2022-11-28T07:52:00;13.90;;;7.28;;
19593;SDS011;9944;48.240;16.478;2022-11-28T07:56:04;15.70;;;7.72;;
19593;SDS011;9944;48.240;16.478;2022-11-28T08:00:08;17.45;;;7.63;;
19593;SDS011;9944;48.240;16.478;2022-11-28T08:04:16;16.88;;;7.40;;
19593;SDS011;9944;48.240;16.478;2022-11-28T08:08:19;16.77;;;7.35;;
19593;SDS011;9944;48.240;16.478;2022-11-28T08:12:22;14.23;;;7.68;;
19593;SDS011;9944;48.240;16.478;2022-11-28T08:16:26;13.60;;;7.38;;
19593;SDS011;9944;48.240;16.478;2022-11-28T08:20:32;14.77;;;7.95;;
19593;SDS011;9944;48.240;16.478;2022-11-28T08:24:35;15.30;;;6.97;;
19593;SDS011;9944;48.240;16.478;2022-11-28T08:28:38;12.98;;;6.82;;
19593;SDS011;9944;48.240;16.478;2022-11-28T08:32:41;16.70;;;7.88;;
19593;SDS011;9944;48.240;16.478;2022-11-28T08:36:45;18.05;;;7.43;;
19593;SDS011;9944;48.240;16.478;2022-11-28T08:40:49;13.90;;;7.07;;
19593;SDS011;9944;48.240;16.478;2022-11-28T08:44:52;14.55;;;7.40;;
19593;SDS011;9944;48.240;16.478;2022-11-28T08:48:55;13.80;;;7.00;;
19593;SDS011;9944;48.240;16.478;2022-11-28T08:52:59;12.93;;;6.68;;
19593;SDS011;9944;48.240;16.478;2022-11-28T08:57:08;17.55;;;7.72;;
19593;SDS011;9944;48.240;16.478;2022-11-28T09:01:15;13.93;;;7.07;;
19593;SDS011;9944;48.240;16.478;2022-11-28T09:05:19;12.85;;;7.03;;
19593;SDS011;9944;48.240;16.478;2022-11-28T09:09:23;13.45;;;7.03;;
19593;SDS011;9944;48.240;16.478;2022-11-28T09:13:33;12.70;;;6.82;;
19593;SDS011;9944;48.240;16.478;2022-11-28T09:17:35;11.52;;;6.63;;
19593;SDS011;9944;48.240;16.478;2022-11-28T09:21:38;12.52;;;6.95;;
19593;SDS011;9944;48.240;16.478;2022-11-28T09:25:43;16.40;;;7.13;;
19593;SDS011;9944;48.240;16.478;2022-11-28T09:29:46;14.48;;;7.57;;
19593;SDS011;9944;48.240;16.478;2022-11-28T09:33:49;14.75;;;6.97;;
19593;SDS011;9944;48.240;16.478;2022-11-28T09:37:52;12.60;;;6.70;;
19593;SDS011;9944;48.240;16.478;2022-11-28T09:41:58;15.10;;;6.93;;
19593;SDS011;9944;48.240;16.478;2022-11-28T09:46:14;12.60;;;6.18;;
19593;SDS011;9944;48.240;16.478;2022-11-28T09:50:25;13.52;;;6.53;;
19593;SDS011;9944;48.240;16.478;2022-11-28T09:54:36;16.55;;;7.43;;
19593;SDS011;9944;48.240;16.478;2022-11-28T09:58:49;11.93;;;6.55;;
19593;SDS011;9944;48.240;16.478;2022-11-28T10:07:37;12.05;;;6.55;;
19593;SDS011;9944;48.240;16.478;2022-11-28T10:11:59;11.45;;;6.40;;
19593;SDS011;9944;48.240;16.478;2022-11-28T10:16:15;14.35;;;6.63;;
19593;SDS011;9944;48.240;16.478;2022-11-28T10:20:25;11.73;;;6.32;;
19593;SDS011;9944;48.240;16.478;2022-11-28T10:24:32;14.43;;;6.20;;
19593;SDS011;9944;48.240;16.478;2022-11-28T10:28:40;13.05;;;7.05;;
19593;SDS011;9944;48.240;16.478;2022-11-28T10:32:47;12.45;;;6.07;;
19593;SDS011;9944;48.240;16.478;2022-11-28T10:36:59;15.93;;;7.15;;
19593;SDS011;9944;48.240;16.478;2022-11-28T10:41:06;11.13;;;5.72;;
19593;SDS011;9944;48.240;16.478;2022-11-28T10:45:17;12.52;;;6.50;;
19593;SDS011;9944;48.240;16.478;2022-11-28T10:49:31;12.13;;;6.07;;
19593;SDS011;9944;48.240;16.478;2022-11-28T10:53:48;10.13;;;5.50;;
19593;SDS011;9944;48.240;16.478;2022-11-28T10:58:02;10.57;;;5.85;;
19593;SDS011;9944;48.240;16.478;2022-11-28T11:02:19;11.23;;;6.00;;
19593;SDS011;9944;48.240;16.478;2022-11-28T11:06:25;11.60;;;6.32;;
19593;SDS011;9944;48.240;16.478;2022-11-28T11:10:44;10.88;;;6.38;;
19593;SDS011;9944;48.240;16.478;2022-11-28T11:14:51;10.57;;;5.65;;
19593;SDS011;9944;48.240;16.478;2022-11-28T11:18:54;11.30;;;5.60;;
19593;SDS011;9944;48.240;16.478;2022-11-28T11:22:59;10.82;;;5.90;;
19593;SDS011;9944;48.240;16.478;2022-11-28T11:27:05;9.23;;;5.50;;
19593;SDS011;9944;48.240;16.478;2022-11-28T11:31:20;13.38;;;6.30;;
19593;SDS011;9944;48.240;16.478;2022-11-28T11:35:27;13.75;;;5.70;;
19593;SDS011;9944;48.240;16.478;2022-11-28T11:39:34;11.63;;;6.05;;
19593;SDS011;9944;48.240;16.478;2022-11-28T11:43:49;16.00;;;5.90;;
19593;SDS011;9944;48.240;16.478;2022-11-28T11:47:52;11.45;;;5.28;;
19593;SDS011;9944;48.240;16.478;2022-11-28T11:51:56;12.57;;;7.07;;
19593;SDS011;9944;48.240;16.478;2022-11-28T11:56:02;12.45;;;6.47;;
19593;SDS011;9944;48.240;16.478;2022-11-28T12:00:06;14.85;;;5.95;;
19593;SDS011;9944;48.240;16.478;2022-11-28T12:04:17;11.23;;;6.38;;
19593;SDS011;9944;48.240;16.478;2022-11-28T12:08:46;11.32;;;6.10;;
19593;SDS011;9944;48.240;16.478;2022-11-28T12:12:54;10.85;;;5.70;;
19593;SDS011;9944;48.240;16.478;2022-11-28T12:17:00;13.07;;;6.05;;
19593;SDS011;9944;48.240;16.478;2022-11-28T12:21:36;10.13;;;5.78;;
19593;SDS011;9944;48.240;16.478;2022-11-28T12:25:46;13.25;;;5.93;;
19593;SDS011;9944;48.240;16.478;2022-11-28T12:29:56;13.10;;;5.93;;
19593;SDS011;9944;48.240;16.478;2022-11-28T12:34:11;11.30;;;6.15;;
19593;SDS011;9944;48.240;16.478;2022-11-28T12:38:25;12.88;;;6.53;;
19593;SDS011;9944;48.240;16.478;2022-11-28T12:42:40;13.68;;;6.15;;
19593;SDS011;9944;48.240;16.478;2022-11-28T12:46:55;11.18;;;6.47;;
19593;SDS011;9944;48.240;16.478;2022-11-28T12:51:07;11.98;;;5.65;;
19593;SDS011;9944;48.240;16.478;2022-11-28T12:55:22;12.82;;;6.28;;
19593;SDS011;9944;48.240;16.478;2022-11-28T12:59:33;11.52;;;6.18;;
19593;SDS011;9944;48.240;16.478;2022-11-28T13:03:50;14.40;;;6.25;;
19593;SDS011;9944;48.240;16.478;2022-11-28T13:08:10;11.48;;;6.05;;
19593;SDS011;9944;48.240;16.478;2022-11-28T13:12:24;11.23;;;5.85;;
19593;SDS011;9944;48.240;16.478;2022-11-28T13:16:39;12.85;;;6.47;;
19593;SDS011;9944;48.240;16.478;2022-11-28T13:20:48;12.73;;;6.38;;
19593;SDS011;9944;48.240;16.478;2022-11-28T13:24:55;13.00;;;6.25;;
19593;SDS011;9944;48.240;16.478;2022-11-28T13:29:06;12.45;;;5.82;;
19593;SDS011;9944;48.240;16.478;2022-11-28T13:33:24;13.52;;;6.40;;
19593;SDS011;9944;48.240;16.478;2022-11-28T13:37:41;11.73;;;6.68;;
19593;SDS011;9944;48.240;16.478;2022-11-28T13:42:14;13.63;;;6.72;;
19593;SDS011;9944;48.240;16.478;2022-11-28T13:46:48;13.77;;;6.80;;
19593;SDS011;9944;48.240;16.478;2022-11-28T13:50:58;13.80;;;6.63;;
19593;SDS011;9944;48.240;16.478;2022-11-28T13:55:04;11.70;;;6.30;;
19593;SDS011;9944;48.240;16.478;2022-11-28T13:59:29;16.00;;;6.78;;
19593;SDS011;9944;48.240;16.478;2022-11-28T14:03:35;12.95;;;6.32;;
19593;SDS011;9944;48.240;16.478;2022-11-28T14:07:45;14.88;;;7.05;;
19593;SDS011;9944;48.240;16.478;2022-11-28T14:11:55;13.25;;;7.20;;
19593;SDS011;9944;48.240;16.478;2022-11-28T14:16:13;14.45;;;6.88;;
19593;SDS011;9944;48.240;16.478;2022-11-28T14:20:26;12.00;;;6.65;;
19593;SDS011;9944;48.240;16.478;2022-11-28T14:24:43;12.60;;;6.20;;
19593;SDS011;9944;48.240;16.478;2022-11-28T14:28:53;12.15;;;6.80;;
19593;SDS011;9944;48.240;16.478;2022-11-28T14:32:58;13.77;;;6.13;;
19593;SDS011;9944;48.240;16.478;2022-11-28T14:42:20;13.45;;;6.47;;
19593;SDS011;9944;48.240;16.478;2022-11-28T14:47:03;13.55;;;7.03;;
19593;SDS011;9944;48.240;16.478;2022-11-28T14:51:09;13.13;;;6.47;;
19593;SDS011;9944;48.240;16.478;2022-11-28T14:55:17;11.05;;;6.97;;
19593;SDS011;9944;48.240;16.478;2022-11-28T14:59:27;14.95;;;8.05;;
19593;SDS011;9944;48.240;16.478;2022-11-28T15:03:35;12.80;;;6.55;;
19593;SDS011;9944;48.240;16.478;2022-11-28T15:07:50;11.10;;;5.82;;
19593;SDS011;9944;48.240;16.478;2022-11-28T15:12:06;13.05;;;6.57;;
19593;SDS011;9944;48.240;16.478;2022-11-28T15:16:18;12.90;;;6.60;;
19593;SDS011;9944;48.240;16.478;2022-11-28T15:20:24;12.20;;;6.28;;
19593;SDS011;9944;48.240;16.478;2022-11-28T15:24:32;12.30;;;5.95;;
19593;SDS011;9944;48.240;16.478;2022-11-28T15:28:37;12.02;;;6.05;;
19593;SDS011;9944;48.240;16.478;2022-11-28T15:32:41;14.32;;;6.82;;
19593;SDS011;9944;48.240;16.478;2022-11-28T15:36:45;14.18;;;7.13;;
19593;SDS011;9944;48.240;16.478;2022-11-28T15:40:54;13.93;;;7.15;;
19593;SDS011;9944;48.240;16.478;2022-11-28T15:44:59;14.18;;;7.43;;
19593;SDS011;9944;48.240;16.478;2022-11-28T15:49:19;13.00;;;7.30;;
19593;SDS011;9944;48.240;16.478;2022-11-28T15:53:24;14.00;;;7.13;;
19593;SDS011;9944;48.240;16.478;2022-11-28T15:57:30;16.40;;;8.00;;
19593;SDS011;9944;48.240;16.478;2022-11-28T16:01:33;16.70;;;7.97;;
19593;SDS011;9944;48.240;16.478;2022-11-28T16:05:37;15.48;;;7.88;;
19593;SDS011;9944;48.240;16.478;2022-11-28T16:09:48;17.85;;;7.88;;
19593;SDS011;9944;48.240;16.478;2022-11-28T16:13:59;16.98;;;8.30;;
19593;SDS011;9944;48.240;16.478;2022-11-28T16:18:11;16.33;;;8.75;;
19593;SDS011;9944;48.240;16.478;2022-11-28T16:22:16;14.65;;;7.75;;
19593;SDS011;9944;48.240;16.478;2022-11-28T16:26:23;16.67;;;7.35;;
19593;SDS011;9944;48.240;16.478;2022-11-28T16:30:34;15.25;;;7.53;;
19593;SDS011;9944;48.240;16.478;2022-11-28T16:34:42;15.15;;;7.68;;
19593;SDS011;9944;48.240;16.478;2022-11-28T16:38:47;15.88;;;7.75;;
19593;SDS011;9944;48.240;16.478;2022-11-28T16:42:52;18.65;;;7.38;;
19593;SDS011;9944;48.240;16.478;2022-11-28T16:46:58;17.15;;;7.95;;
19593;SDS011;9944;48.240;16.478;2022-11-28T16:55:37;13.43;;;7.57;;
19593;SDS011;9944;48.240;16.478;2022-11-28T16:59:42;13.23;;;7.25;;
19593;SDS011;9944;48.240;16.478;2022-11-28T17:03:49;15.70;;;7.57;;
19593;SDS011;9944;48.240;16.478;2022-11-28T17:07:54;14.52;;;7.80;;
19593;SDS011;9944;48.240;16.478;2022-11-28T17:11:58;14.70;;;8.18;;
19593;SDS011;9944;48.240;16.478;2022-11-28T17:16:07;14.30;;;7.35;;
19593;SDS011;9944;48.240;16.478;2022-11-28T17:20:18;12.30;;;6.93;;
19593;SDS011;9944;48.240;16.478;2022-11-28T17:24:22;14.60;;;7.30;;
19593;SDS011;9944;48.240;16.478;2022-11-28T17:28:26;16.65;;;8.25;;
19593;SDS011;9944;48.240;16.478;2022-11-28T17:32:29;16.13;;;7.63;;
19593;SDS011;9944;48.240;16.478;2022-11-28T17:36:34;16.15;;;8.18;;
19593;SDS011;9944;48.240;16.478;2022-11-28T17:40:37;16.83;;;7.75;;
19593;SDS011;9944;48.240;16.478;2022-11-28T17:44:42;13.85;;;7.93;;
19593;SDS011;9944;48.240;16.478;2022-11-28T17:48:46;15.68;;;7.93;;
19593;SDS011;9944;48.240;16.478;2022-11-28T17:52:51;14.38;;;8.02;;
19593;SDS011;9944;48.240;16.478;2022-11-28T17:56:54;15.40;;;7.78;;
19593;SDS011;9944;48.240;16.478;2022-11-28T18:00:57;16.05;;;8.18;;
19593;SDS011;9944;48.240;16.478;2022-11-28T18:05:01;15.25;;;8.10;;
19593;SDS011;9944;48.240;16.478;2022-11-28T18:09:09;15.20;;;8.63;;
19593;SDS011;9944;48.240;16.478;2022-11-28T18:13:13;13.77;;;7.50;;
19593;SDS011;9944;48.240;16.478;2022-11-28T18:17:18;15.95;;;8.45;;
19593;SDS011;9944;48.240;16.478;2022-11-28T18:21:21;13.43;;;7.72;;
19593;SDS011;9944;48.240;16.478;2022-11-28T18:25:26;15.00;;;8.40;;
19593;SDS011;9944;48.240;16.478;2022-11-28T18:29:30;17.48;;;8.73;;
19593;SDS011;9944;48.240;16.478;2022-11-28T18:33:34;18.67;;;9.23;;
19593;SDS011;9944;48.240;16.478;2022-11-28T18:37:38;14.75;;;7.90;;
19593;SDS011;9944;48.240;16.478;2022-11-28T18:41:43;16.85;;;9.20;;
19593;SDS011;9944;48.240;16.478;2022-11-28T18:45:46;16.17;;;8.70;;
19593;SDS011;9944;48.240;16.478;2022-11-28T18:49:49;15.75;;;8.07;;
19593;SDS011;9944;48.240;16.478;2022-11-28T18:53:53;19.27;;;9.50;;
19593;SDS011;9944;48.240;16.478;2022-11-28T18:57:58;19.15;;;9.18;;
19593;SDS011;9944;48.240;16.478;2022-11-28T19:02:02;17.23;;;8.70;;
19593;SDS011;9944;48.240;16.478;2022-11-28T19:06:05;19.40;;;9.63;;
19593;SDS011;9944;48.240;16.478;2022-11-28T19:10:11;16.25;;;8.43;;
19593;SDS011;9944;48.240;16.478;2022-11-28T19:14:17;17.27;;;9.40;;
19593;SDS011;9944;48.240;16.478;2022-11-28T19:18:21;18.77;;;9.10;;
19593;SDS011;9944;48.240;16.478;2022-11-28T19:22:24;18.70;;;9.23;;
19593;SDS011;9944;48.240;16.478;2022-11-28T19:26:29;18.77;;;9.27;;
19593;SDS011;9944;48.240;16.478;2022-11-28T19:30:35;18.42;;;9.45;;
19593;SDS011;9944;48.240;16.478;2022-11-28T19:34:39;19.27;;;9.60;;
19593;SDS011;9944;48.240;16.478;2022-11-28T19:38:42;18.50;;;8.82;;
19593;SDS011;9944;48.240;16.478;2022-11-28T19:42:45;18.60;;;9.35;;
19593;SDS011;9944;48.240;16.478;2022-11-28T19:46:51;19.30;;;9.68;;
19593;SDS011;9944;48.240;16.478;2022-11-28T19:50:54;17.52;;;9.02;;
19593;SDS011;9944;48.240;16.478;2022-11-28T19:54:58;18.33;;;9.35;;
19593;SDS011;9944;48.240;16.478;2022-11-28T19:59:01;18.77;;;9.38;;
19593;SDS011;9944;48.240;16.478;2022-11-28T20:03:06;21.98;;;10.00;;
19593;SDS011;9944;48.240;16.478;2022-11-28T20:07:09;17.52;;;9.90;;
19593;SDS011;9944;48.240;16.478;2022-11-28T20:11:13;16.05;;;9.52;;
19593;SDS011;9944;48.240;16.478;2022-11-28T20:15:17;20.85;;;10.32;;
19593;SDS011;9944;48.240;16.478;2022-11-28T20:19:23;20.40;;;10.13;;
19593;SDS011;9944;48.240;16.478;2022-11-28T20:23:27;24.85;;;10.70;;
19593;SDS011;9944;48.240;16.478;2022-11-28T20:27:31;19.42;;;9.65;;
19593;SDS011;9944;48.240;16.478;2022-11-28T20:31:35;19.50;;;9.70;;
19593;SDS011;9944;48.240;16.478;2022-11-28T20:35:43;20.60;;;10.10;;
19593;SDS011;9944;48.240;16.478;2022-11-28T20:39:46;20.58;;;10.32;;
19593;SDS011;9944;48.240;16.478;2022-11-28T20:43:50;19.60;;;10.50;;
19593;SDS011;9944;48.240;16.478;2022-11-28T20:47:53;20.00;;;10.02;;
19593;SDS011;9944;48.240;16.478;2022-11-28T20:51:57;22.75;;;10.43;;
19593;SDS011;9944;48.240;16.478;2022-11-28T20:56:01;19.73;;;11.05;;
19593;SDS011;9944;48.240;16.478;2022-11-28T21:00:06;22.63;;;10.32;;
19593;SDS011;9944;48.240;16.478;2022-11-28T21:04:11;22.83;;;9.90;;
19593;SDS011;9944;48.240;16.478;2022-11-28T21:08:17;21.50;;;10.90;;
19593;SDS011;9944;48.240;16.478;2022-11-28T21:12:21;22.50;;;11.45;;
19593;SDS011;9944;48.240;16.478;2022-11-28T21:16:25;20.33;;;10.32;;
19593;SDS011;9944;48.240;16.478;2022-11-28T21:20:29;26.48;;;9.95;;
19593;SDS011;9944;48.240;16.478;2022-11-28T21:24:34;18.75;;;9.55;;
19593;SDS011;9944;48.240;16.478;2022-11-28T21:28:38;22.27;;;10.05;;
19593;SDS011;9944;48.240;16.478;2022-11-28T21:32:42;22.48;;;10.50;;
19593;SDS011;9944;48.240;16.478;2022-11-28T21:36:45;23.52;;;9.90;;
19593;SDS011;9944;48.240;16.478;2022-11-28T21:40:52;21.65;;;10.52;;
19593;SDS011;9944;48.240;16.478;2022-11-28T21:44:55;20.75;;;9.77;;
19593;SDS011;9944;48.240;16.478;2022-11-28T21:48:58;22.50;;;10.45;;
19593;SDS011;9944;48.240;16.478;2022-11-28T21:53:02;20.45;;;10.00;;
19593;SDS011;9944;48.240;16.478;2022-11-28T21:57:07;19.98;;;9.57;;
19593;SDS011;9944;48.240;16.478;2022-11-28T22:01:11;20.48;;;10.52;;
19593;SDS011;9944;48.240;16.478;2022-11-28T22:05:16;19.80;;;10.20;;
19593;SDS011;9944;48.240;16.478;2022-11-28T22:09:19;22.83;;;10.38;;
19593;SDS011;9944;48.240;16.478;2022-11-28T22:13:24;24.95;;;11.68;;
19593;SDS011;9944;48.240;16.478;2022-11-28T22:17:27;23.70;;;10.23;;
19593;SDS011;9944;48.240;16.478;2022-11-28T22:21:34;20.95;;;10.57;;
19593;SDS011;9944;48.240;16.478;2022-11-28T22:25:57;24.17;;;10.98;;
19593;SDS011;9944;48.240;16.478;2022-11-28T22:30:01;21.05;;;10.18;;
19593;SDS011;9944;48.240;16.478;2022-11-28T22:34:04;20.75;;;11.25;;
19593;SDS011;9944;48.240;16.478;2022-11-28T22:38:08;22.38;;;10.05;;
19593;SDS011;9944;48.240;16.478;2022-11-28T22:42:11;18.48;;;9.35;;
19593;SDS011;9944;48.240;16.478;2022-11-28T22:46:16;24.17;;;10.52;;
19593;SDS011;9944;48.240;16.478;2022-11-28T22:50:19;22.25;;;11.05;;
19593;SDS011;9944;48.240;16.478;2022-11-28T22:54:22;22.98;;;11.27;;
19593;SDS011;9944;48.240;16.478;2022-11-28T22:58:26;20.88;;;9.70;;
19593;SDS011;9944;48.240;16.478;2022-11-28T23:02:30;19.73;;;10.40;;
19593;SDS011;9944;48.240;16.478;2022-11-28T23:06:34;21.98;;;10.93;;
19593;SDS011;9944;48.240;16.478;2022-11-28T23:10:38;20.33;;;10.63;;
19593;SDS011;9944;48.240;16.478;2022-11-28T23:14:41;24.88;;;11.43;;
19593;SDS011;9944;48.240;16.478;2022-11-28T23:18:47;22.42;;;10.48;;
19593;SDS011;9944;48.240;16.478;2022-11-28T23:22:53;20.40;;;10.20;;
19593;SDS011;9944;48.240;16.478;2022-11-28T23:26:57;22.17;;;10.45;;
19593;SDS011;9944;48.240;16.478;2022-11-28T23:31:04;22.95;;;10.48;;
19593;SDS011;9944;48.240;16.478;2022-11-28T23:35:09;20.20;;;9.60;;
19593;SDS011;9944;48.240;16.478;2022-11-28T23:39:12;18.27;;;8.88;;
19593;SDS011;9944;48.240;16.478;2022-11-28T23:43:17;18.83;;;8.48;;
19593;SDS011;9944;48.240;16.478;2022-11-28T23:47:20;20.60;;;9.60;;
19593;SDS011;9944;48.240;16.478;2022-11-28T23:51:24;20.40;;;9.85;;
19593;SDS011;9944;48.240;16.478;2022-11-28T23:55:27;19.23;;;8.88;;
19593;SDS011;9944;48.240;16.478;2022-11-28T23:59:30;18.67;;;8.82;;
